Online since October of 2007


Bigbaywx more information Bigbaywx


mount mesnard more information Mount Mesnard


visit our other weather sites:

Template documentation
and downloads

And another site


CBI


there are no active watches, warnings or advisories

nearby metar reports

   
KSAW - Sawyer, Michigan
updated: Sep 25 2020 10:38 pm
Nearby Thunderstorm, mostly cloudy  
Nearby Thunderstorm, mostly cloudy  
   wind: south 13.8 mph
wind: south 13.8 mph
temperature: 62.6°F
dew point: 57.2°F
humidity: 83%
barometer: 29.72 inHg
clouds: mostly cloudy
visibility: 10 mi
cloud details: partly cloudy 1402 m,
partly cloudy 1524 m,
mostly cloudy 2134 m
KSAW 260238Z AUTO 19012KT 10SM VCTS SCT046 SCT050 BKN070 17/14 A2972 RMK AO2 LTG DSNT W THRU NE T01710136
KESC - Escanaba, Michigan
updated: Sep 25 2020 9:56 pm
clear  
clear  
   wind: ssw 12.7 mph<br />Gust to 12.7 mph
wind: ssw 12.7 mph
Gust to 12.7 mph
temperature: 64.4°F
dew point: 57.2°F
humidity: 78%
barometer: 29.7 inHg
clouds: clear
visibility: 10 mi
cloud details: clear
KESC 260156Z AUTO 21011G17KT 10SM CLR 18/14 A2970 RMK AO2 SLP060 T01830144
KIMT - Iron Mountain, MI
updated: Sep 25 2020 9:54 pm
clear  
clear  
   wind: south 11.5 mph<br />Gust to 11.5 mph
wind: south 11.5 mph
Gust to 11.5 mph
temperature: 66.2°F
dew point: 55.4°F
humidity: 68%
barometer: 29.68 inHg
clouds: clear
visibility: 10 mi
cloud details: clear
KIMT 260154Z AUTO 17010G18KT 10SM CLR 19/13 A2968 RMK AO2 SLP050 T01940133
KGRB - Green Bay, WI
updated: Sep 25 2020 9:53 pm
clear  
clear  
   wind: ssw 9.2 mph
wind: ssw 9.2 mph
temperature: 68°F
dew point: 57.2°F
humidity: 69%
barometer: 29.77 inHg
clouds: clear
visibility: 10 mi
cloud details: clear
KGRB 260153Z AUTO 20008KT 10SM CLR 20/14 A2977 RMK AO2 SLP078 T02000139
KDET - Detroit, MI
updated: Sep 25 2020 9:53 pm
clear  
clear  
   wind: se 3.5 mph
wind: se 3.5 mph
temperature: 66.2°F
dew point: 55.4°F
humidity: 68%
barometer: 29.97 inHg
clouds: clear
visibility: 10 mi
cloud details: clear
KDET 260153Z 14003KT 10SM CLR 19/13 A2997 RMK AO2 SLP147 T01940128
 

script developed by  Saratoga-weather.org adapted for the template by  Weerstation Leuven

you find our weather info also at:

Weather Underground

midwestern weather network

WeatherlinkIP

Citizen Weather Observer Program (CWOP)

equipment we use:

weather-station
Davis VP2

weather-program
Davis Weatherlink.Com

Davis VP2

Davis Weatherlink.Com